Time;durP1;ratioP1;P1;durP2;ratioP2;P2;SDS_P1;SDS_P2;PMS_P1;PMS_P2;Temp;Humidity;BMP_temperature;BMP_pressure;BME280_temperature;BME280_humidity;BME280_pressure;Samples;Min_cycle;Max_cycle;Signal;HPM_P1;HPM_P2
2022/01/26 00:06:45;;;;;;;71.60;34.70;;;;;;;2.47;81.53;103280.59;4970186;28;20037;-72
2022/01/26 00:09:12;;;;;;;76.53;39.25;;;;;;;2.45;81.11;103280.69;4969768;28;20034;-72
2022/01/26 00:11:38;;;;;;;78.25;35.80;;;;;;;2.43;81.25;103279.91;4969894;28;20030;-72
2022/01/26 00:14:10;;;;;;;73.50;40.00;;;;;;;2.42;81.59;103283.47;4969899;28;20041;-72
2022/01/26 00:19:03;;;;;;;77.93;36.72;;;;;;;2.41;81.70;103285.28;4952937;28;20434;-72
2022/01/26 00:21:36;;;;;;;69.43;34.20;;;;;;;2.29;80.93;103262.22;4973163;28;20030;-72
2022/01/26 00:29:16;;;;;;;76.45;35.03;;;;;;;2.43;82.02;103282.53;4972975;28;20110;-72
2022/01/26 00:33:06;;;;;;;67.28;33.10;;;;;;;2.40;81.71;103273.03;4973162;28;20045;-72
2022/01/26 00:40:40;;;;;;;74.03;35.67;;;;;;;2.43;81.88;103261.47;4972830;28;20128;-72
2022/01/26 00:43:26;;;;;;;;;;;;;;;2.44;82.15;103263.19;4973064;28;20035;-72
2022/01/26 00:45:56;;;;;;;68.38;32.72;;;;;;;2.41;81.92;103265.97;4973112;28;19918;-72
2022/01/26 00:48:22;;;;;;;70.32;30.42;;;;;;;2.40;82.08;103270.38;4972975;28;20035;-72
2022/01/26 00:50:51;;;;;;;59.20;27.85;;;;;;;2.37;82.03;103262.66;4972682;28;20038;-72
2022/01/26 00:53:24;;;;;;;55.33;26.15;;;;;;;2.33;81.77;103255.00;4972703;28;20630;-72
2022/01/26 00:55:49;;;;;;;64.22;31.42;;;;;;;2.35;81.98;103261.03;4972757;28;20481;-72
2022/01/26 00:58:15;;;;;;;65.78;37.60;;;;;;;2.39;81.76;103268.69;4972650;28;20022;-72
2022/01/26 01:00:41;;;;;;;69.38;33.17;;;;;;;2.32;81.14;103262.06;4972490;28;20478;-72
2022/01/26 01:03:07;;;;;;;71.53;32.70;;;;;;;2.33;81.27;103263.78;4972493;28;20031;-72
2022/01/26 01:05:38;;;;;;;66.25;29.40;;;;;;;2.33;81.43;103262.91;4972388;28;20034;-72
2022/01/26 01:08:09;;;;;;;72.70;35.40;;;;;;;2.32;82.00;103259.41;4972558;28;20034;-72
2022/01/26 01:10:35;;;;;;;69.05;33.40;;;;;;;2.31;82.21;103260.38;4972239;28;20761;-72
2022/01/26 01:13:01;;;;;;;75.38;31.48;;;;;;;2.28;82.47;103251.75;4955063;28;20042;-72
2022/01/26 01:15:30;;;;;;;74.88;34.80;;;;;;;2.33;81.83;103255.00;4955044;28;20058;-72
2022/01/26 01:18:09;;;;;;;67.55;30.30;;;;;;;2.31;82.05;103252.47;4972074;28;20552;-72
2022/01/26 01:28:22;;;;;;;70.95;35.33;;;;;;;2.28;82.24;103247.38;4972330;28;20061;-72
2022/01/26 01:30:53;;;;;;;72.30;34.15;;;;;;;2.28;81.78;103241.22;4971159;28;20038;-72
2022/01/26 01:33:22;;;;;;;63.83;29.95;;;;;;;2.22;81.94;103223.16;4971958;28;20050;-72
2022/01/26 01:35:49;;;;;;;69.25;34.97;;;;;;;2.19;81.78;103218.91;4971890;28;20036;-72
2022/01/26 01:38:17;;;;;;;81.40;36.17;;;;;;;2.25;82.30;103218.56;4971833;28;20038;-72
2022/01/26 01:40:46;;;;;;;65.65;31.02;;;;;;;2.25;82.18;103217.72;4971932;28;20108;-72
2022/01/26 01:43:13;;;;;;;68.43;34.28;;;;;;;2.27;82.14;103229.84;4971784;28;20486;-72
2022/01/26 01:45:45;;;;;;;72.10;33.60;;;;;;;2.27;82.29;103229.00;4971956;28;20130;-72
2022/01/26 01:48:15;;;;;;;64.68;33.85;;;;;;;2.25;81.42;103228.25;4953230;28;20034;-72
2022/01/26 01:50:41;;;;;;;75.50;34.33;;;;;;;2.17;81.83;103207.59;4952761;28;20027;-72
2022/01/26 01:53:08;;;;;;;70.78;34.83;;;;;;;2.21;81.92;103221.47;4953007;28;20039;-72
2022/01/26 01:55:38;;;;;;;76.45;34.78;;;;;;;2.25;82.52;103220.34;4971648;28;20046;-72
2022/01/26 01:58:03;;;;;;;71.35;32.55;;;;;;;2.27;82.55;103229.00;4935680;28;20482;-72
2022/01/26 02:00:28;;;;;;;73.95;31.73;;;;;;;2.30;82.57;103226.22;4964592;28;20058;-72
2022/01/26 02:02:54;;;;;;;72.47;32.83;;;;;;;2.31;82.26;103227.94;4971297;28;20406;-72
2022/01/26 02:05:20;;;;;;;72.15;36.10;;;;;;;2.29;82.19;103227.16;4971316;28;20034;-72
2022/01/26 02:07:45;;;;;;;68.13;31.30;;;;;;;2.28;82.80;103220.16;4971298;28;20363;-72
2022/01/26 02:10:11;;;;;;;82.03;34.13;;;;;;;2.26;82.94;103219.44;4971215;28;20081;-72
2022/01/26 02:12:42;;;;;;;68.45;31.73;;;;;;;2.32;83.28;103216.44;4971235;28;20058;-72
2022/01/26 02:15:15;;;;;;;72.28;33.03;;;;;;;2.33;84.05;103199.69;4971237;28;20066;-72
2022/01/26 02:53:00;;;;;;;72.90;32.20;;;;;;;2.35;84.14;103179.41;4970857;28;20038;-72
2022/01/26 02:55:41;;;;;;;64.10;30.67;;;;;;;2.34;83.86;103177.72;4954802;28;20509;-72
2022/01/26 02:58:38;;;;;;;;;;;;;;;2.35;83.71;103169.72;4971126;28;20071;-72
2022/01/26 03:03:42;;;;;;;75.70;37.92;;;;;;;2.29;83.49;103164.81;4970636;28;20077;-72
2022/01/26 03:06:13;;;;;;;70.05;33.75;;;;;;;2.27;83.97;103164.03;4970496;28;20038;-72
2022/01/26 03:08:43;;;;;;;64.35;33.15;;;;;;;2.27;83.55;103173.72;4970644;28;20042;-72
2022/01/26 03:11:12;;;;;;;65.13;30.88;;;;;;;2.27;83.51;103168.47;4970510;28;20031;-72
2022/01/26 03:13:43;;;;;;;58.30;31.60;;;;;;;2.18;83.95;103143.50;4970548;28;20038;-72
2022/01/26 03:16:17;;;;;;;69.45;36.63;;;;;;;2.27;83.88;103157.94;4970630;28;20041;-72
2022/01/26 03:18:58;;;;;;;67.07;33.97;;;;;;;2.24;83.67;103158.09;4970317;28;20027;-72
2022/01/26 03:21:55;;;;;;;63.78;32.10;;;;;;;2.26;82.97;103158.88;4970339;28;20042;-72
2022/01/26 03:29:53;;;;;;;72.95;36.17;;;;;;;2.20;83.02;103162.66;4952085;28;20038;-71
2022/01/26 03:35:04;;;;;;;69.78;37.63;;;;;;;2.23;83.75;103167.78;4951928;28;20418;-72
2022/01/26 03:37:36;;;;;;;89.63;36.83;;;;;;;2.15;83.98;103143.66;4934537;28;20031;-71
2022/01/26 03:40:11;;;;;;;77.80;36.22;;;;;;;2.14;83.98;103152.47;4951859;28;20039;-72
2022/01/26 03:42:36;;;;;;;71.43;30.23;;;;;;;2.17;83.88;103166.34;4951757;28;20031;-72
2022/01/26 03:45:02;;;;;;;74.03;35.60;;;;;;;2.19;83.47;103167.09;4951645;28;20042;-72
2022/01/26 03:47:28;;;;;;;64.80;33.05;;;;;;;2.17;83.08;103165.47;4951639;28;20031;-72
2022/01/26 03:49:53;;;;;;;66.85;34.40;;;;;;;2.20;84.09;103167.94;4951604;28;20114;-72
2022/01/26 03:52:18;;;;;;;70.07;33.13;;;;;;;2.21;83.79;103150.38;4951587;28;20470;-72
2022/01/26 03:54:44;;;;;;;70.25;31.70;;;;;;;2.21;84.46;103150.38;4953123;28;20490;-72
2022/01/26 03:57:09;;;;;;;64.32;31.20;;;;;;;2.15;84.88;103144.53;4955121;28;20049;-72
2022/01/26 03:59:34;;;;;;;74.55;36.88;;;;;;;2.21;84.74;103155.63;4937918;28;20089;-72
2022/01/26 04:02:00;;;;;;;65.95;29.33;;;;;;;2.17;84.90;103157.56;4955092;28;20044;-72
2022/01/26 04:04:25;;;;;;;65.90;29.45;;;;;;;2.21;85.27;103151.22;4954956;28;20129;-72
2022/01/26 04:06:51;;;;;;;70.43;32.08;;;;;;;2.21;84.66;103153.84;4937797;28;20050;-72
2022/01/26 04:09:18;;;;;;;78.63;33.33;;;;;;;2.08;84.51;103126.50;4954874;28;20110;-72
2022/01/26 04:11:47;;;;;;;71.78;35.03;;;;;;;2.21;84.58;103153.00;4954685;28;20486;-72
2022/01/26 04:14:17;;;;;;;65.78;30.88;;;;;;;2.19;84.50;103151.28;4954947;28;20418;-72
2022/01/26 04:16:43;;;;;;;75.45;35.00;;;;;;;2.11;84.40;103121.06;4954579;28;20031;-72
2022/01/26 04:19:09;;;;;;;72.00;31.02;;;;;;;2.21;84.61;103137.22;4956900;28;20031;-72
2022/01/26 04:26:39;;;;;;;75.55;34.88;;;;;;;2.22;84.66;103134.47;4954745;28;20055;-72
2022/01/26 04:29:10;;;;;;;64.38;28.80;;;;;;;2.19;84.10;103132.88;4954585;28;20503;-71
2022/01/26 04:31:35;;;;;;;64.38;32.40;;;;;;;2.21;83.94;103150.38;4954589;28;20980;-71
2022/01/26 04:34:01;;;;;;;69.78;33.10;;;;;;;2.19;84.41;103153.09;4954722;28;20023;-71
2022/01/26 04:39:30;;;;;;;66.85;31.48;;;;;;;2.18;84.86;103165.41;4911616;28;20039;-72
2022/01/26 04:42:07;;;;;;;75.05;35.70;;;;;;;2.17;84.73;103176.88;4954388;28;20027;-72
2022/01/26 04:44:45;;;;;;;69.97;28.25;;;;;;;2.10;85.01;103158.88;4954374;28;20102;-72
2022/01/26 04:47:10;;;;;;;71.10;29.88;;;;;;;2.13;84.84;103170.06;4954374;28;20042;-72
2022/01/26 04:49:36;;;;;;;81.30;34.67;;;;;;;2.17;85.21;103184.78;4954120;28;20024;-72
2022/01/26 04:52:03;;;;;;;73.40;33.00;;;;;;;2.14;85.76;103184.06;4954269;28;20031;-72
2022/01/26 04:54:29;;;;;;;66.15;33.30;;;;;;;2.15;85.42;103180.53;4953979;28;20031;-72
2022/01/26 04:56:54;;;;;;;73.38;32.75;;;;;;;2.16;85.49;103171.69;4954199;28;20087;-72
2022/01/26 04:59:20;;;;;;;72.15;32.05;;;;;;;2.14;86.38;103165.66;4954150;28;20070;-71
2022/01/26 05:01:45;;;;;;;76.65;35.80;;;;;;;2.11;85.85;103182.47;4954189;28;20059;-71
2022/01/26 05:04:10;;;;;;;72.32;32.47;;;;;;;2.12;85.99;103178.91;4954036;28;20031;-72
2022/01/26 05:06:36;;;;;;;78.07;35.63;;;;;;;2.16;86.20;103171.69;4935833;28;20122;-72
2022/01/26 05:09:02;;;;;;;80.35;35.40;;;;;;;2.14;86.26;103155.13;4936602;28;20054;-72
2022/01/26 05:11:34;;;;;;;75.28;33.38;;;;;;;2.13;86.09;103163.97;4953913;28;20039;-72
2022/01/26 05:13:59;;;;;;;71.47;30.20;;;;;;;2.08;85.71;103174.72;4937519;28;20035;-71
2022/01/26 05:16:25;;;;;;;76.22;36.58;;;;;;;2.09;86.09;103170.31;4953829;28;20030;-72
2022/01/26 05:18:52;;;;;;;85.22;39.05;;;;;;;2.08;85.95;103161.56;4953865;28;20487;-72
2022/01/26 05:21:18;;;;;;;71.10;33.80;;;;;;;2.07;85.90;103144.09;4936760;28;20502;-72
2022/01/26 05:23:43;;;;;;;65.03;31.45;;;;;;;2.07;85.54;103135.31;4953643;28;20031;-72
2022/01/26 05:26:09;;;;;;;77.47;36.72;;;;;;;2.05;85.75;103132.78;4970359;28;20046;-71
2022/01/26 05:28:34;;;;;;;71.30;33.03;;;;;;;2.05;86.00;103131.94;4971786;28;20049;-72
2022/01/26 05:30:59;;;;;;;66.32;29.15;;;;;;;2.01;85.86;103127.78;4971837;28;20709;-71
2022/01/26 05:33:25;;;;;;;83.90;38.28;;;;;;;2.01;86.33;103135.66;4971944;28;20122;-72
2022/01/26 05:35:51;;;;;;;78.95;30.10;;;;;;;2.01;86.38;103131.25;4971895;28;20386;-72
2022/01/26 05:38:17;;;;;;;70.72;29.52;;;;;;;2.00;86.25;103139.25;4971841;28;20603;-72
2022/01/26 05:40:42;;;;;;;75.30;34.28;;;;;;;2.00;87.10;103139.25;4971838;28;20031;-72
2022/01/26 05:43:08;;;;;;;73.18;33.38;;;;;;;2.01;86.42;103143.56;4971801;28;20035;-72
2022/01/26 05:45:36;;;;;;;71.13;35.50;;;;;;;1.99;86.16;103127.84;4971783;28;20062;-72
2022/01/26 05:48:04;;;;;;;72.22;34.38;;;;;;;1.96;86.36;103130.66;4971875;28;20038;-72
2022/01/26 05:50:32;;;;;;;71.43;33.15;;;;;;;1.98;86.70;103134.06;4971474;28;20054;-72
2022/01/26 05:52:57;;;;;;;70.35;31.55;;;;;;;1.98;86.51;103137.53;4971580;28;20486;-72
2022/01/26 05:55:22;;;;;;;77.10;37.17;;;;;;;1.98;86.79;103134.91;4971361;28;20049;-72
2022/01/26 05:57:48;;;;;;;73.53;35.67;;;;;;;1.95;86.28;103127.19;4971416;28;20038;-72
2022/01/26 06:00:13;;;;;;;71.07;32.58;;;;;;;1.98;86.56;103118.25;4971469;28;20078;-72
2022/01/26 06:02:39;;;;;;;73.57;35.13;;;;;;;1.95;86.32;103118.44;4971186;28;20363;-72
2022/01/26 06:05:05;;;;;;;75.45;33.28;;;;;;;1.92;86.59;103119.47;4971156;28;20469;-72
2022/01/26 06:07:30;;;;;;;77.15;36.70;;;;;;;1.93;86.79;103112.41;4971270;28;20158;-72
2022/01/26 06:09:56;;;;;;;77.60;32.22;;;;;;;1.89;86.79;103113.53;4953819;28;20035;-72
2022/01/26 06:12:21;;;;;;;76.05;32.90;;;;;;;1.90;86.84;103117.84;4971297;28;20027;-72
2022/01/26 06:14:46;;;;;;;73.75;33.35;;;;;;;1.93;86.90;103136.09;4953793;28;20041;-72
2022/01/26 06:17:12;;;;;;;92.40;37.35;;;;;;;1.94;86.99;103128.13;4970696;28;20114;-72
2022/01/26 06:19:37;;;;;;;81.13;36.63;;;;;;;1.94;86.78;103145.69;4971031;28;20022;-72
2022/01/26 06:22:03;;;;;;;76.80;35.17;;;;;;;1.93;86.98;103146.63;4971149;28;20453;-72
2022/01/26 06:24:28;;;;;;;67.05;33.30;;;;;;;1.89;86.90;103117.00;4971036;28;20452;-72
2022/01/26 06:26:53;;;;;;;82.13;36.75;;;;;;;1.96;86.79;103118.38;4970727;28;20084;-72
2022/01/26 06:29:19;;;;;;;70.30;34.45;;;;;;;1.95;86.57;103118.44;4970798;28;20605;-72
2022/01/26 06:31:44;;;;;;;77.70;35.40;;;;;;;1.96;87.02;103122.75;4969354;28;20477;-72
2022/01/26 06:34:12;;;;;;;71.75;30.60;;;;;;;1.92;87.13;103121.25;4952408;28;20375;-71
2022/01/26 06:36:44;;;;;;;80.15;34.50;;;;;;;1.97;87.48;103124.47;4952259;28;20055;-72
2022/01/26 06:39:11;;;;;;;75.50;34.58;;;;;;;1.95;86.85;103127.19;4952343;28;20058;-72
2022/01/26 06:41:37;;;;;;;84.22;34.53;;;;;;;1.95;87.08;103124.53;4952270;28;20482;-72
2022/01/26 06:44:15;;;;;;;77.80;33.33;;;;;;;1.96;87.29;103120.13;4952137;28;20101;-72
2022/01/26 06:46:53;;;;;;;83.50;31.63;;;;;;;1.96;87.55;103121.00;4952281;28;20125;-72
2022/01/26 06:51:54;;;;;;;86.30;34.13;;;;;;;1.96;86.84;103141.19;4952521;28;20051;-72
2022/01/26 06:54:20;;;;;;;80.78;36.47;;;;;;;1.97;87.24;103132.38;4951787;28;20289;-72
2022/01/26 06:56:45;;;;;;;76.40;35.88;;;;;;;1.98;87.49;103126.16;4934511;28;20031;-72
2022/01/26 06:59:11;;;;;;;78.28;34.65;;;;;;;1.97;87.66;103133.22;4934675;28;20088;-72
2022/01/26 07:01:38;;;;;;;73.25;31.90;;;;;;;1.98;87.60;103134.06;4951870;28;20114;-72
2022/01/26 07:04:03;;;;;;;73.85;33.90;;;;;;;1.97;87.92;103129.75;4951843;28;20042;-71
2022/01/26 07:06:29;;;;;;;75.85;34.00;;;;;;;2.00;87.64;103132.19;4951925;28;20031;-72
2022/01/26 07:08:54;;;;;;;75.78;35.50;;;;;;;2.01;87.88;103130.41;4951886;28;20409;-72
2022/01/26 07:11:20;;;;;;;80.55;35.25;;;;;;;1.98;88.06;103120.91;4951911;28;20035;-72
2022/01/26 07:13:45;;;;;;;71.15;31.30;;;;;;;2.00;87.82;103126.09;4951929;28;20039;-72
2022/01/26 07:21:39;;;;;;;71.07;35.22;;;;;;;1.99;88.12;103127.84;4970508;28;20487;-71
2022/01/26 07:24:04;;;;;;;74.78;33.13;;;;;;;2.01;88.22;103149.69;4970108;28;20042;-72
2022/01/26 07:26:30;;;;;;;75.22;36.03;;;;;;;2.01;88.25;103159.34;4970292;28;20062;-72
2022/01/26 07:29:05;;;;;;;72.18;29.92;;;;;;;1.96;88.67;103142.06;4970186;28;20047;-71
2022/01/26 07:31:33;;;;;;;79.82;35.50;;;;;;;2.00;88.33;103136.63;4974055;28;20069;-71
2022/01/26 07:33:58;;;;;;;82.95;36.08;;;;;;;1.96;88.88;103147.31;4974076;28;20049;-71
2022/01/26 07:36:24;;;;;;;76.60;31.42;;;;;;;1.91;89.11;103136.19;4973992;28;20034;-71
2022/01/26 07:38:53;;;;;;;75.57;33.83;;;;;;;2.03;89.15;103152.22;4974030;28;20096;-72
2022/01/26 07:41:19;;;;;;;68.13;31.83;;;;;;;2.02;89.31;103142.63;4973900;28;20493;-72
2022/01/26 07:43:45;;;;;;;84.55;37.20;;;;;;;1.94;89.36;103127.28;4974120;28;20031;-72
2022/01/26 07:46:11;;;;;;;85.47;33.88;;;;;;;1.99;89.32;103135.75;4973755;28;20377;-72
2022/01/26 07:48:37;;;;;;;74.68;33.72;;;;;;;2.01;89.83;103141.78;4973621;28;20093;-72
2022/01/26 07:51:03;;;;;;;74.07;30.00;;;;;;;1.93;90.24;103125.56;4973656;28;20079;-72
2022/01/26 07:53:28;;;;;;;84.95;37.42;;;;;;;2.00;90.00;103134.81;4973743;28;20113;-72
2022/01/26 07:55:56;;;;;;;78.20;38.00;;;;;;;2.01;90.47;103139.16;4973697;28;20054;-72
2022/01/26 07:58:21;;;;;;;78.82;36.60;;;;;;;2.02;90.64;103159.28;4973796;28;20382;-72
2022/01/26 08:00:47;;;;;;;70.70;35.25;;;;;;;2.04;90.43;103169.72;4973474;28;20035;-72
2022/01/26 08:03:12;;;;;;;85.93;38.17;;;;;;;2.04;90.53;103167.91;4973671;28;20041;-72
2022/01/26 08:05:38;;;;;;;87.43;37.63;;;;;;;1.99;90.61;103162.06;4973534;28;20035;-72
2022/01/26 08:08:03;;;;;;;73.38;32.70;;;;;;;2.02;90.90;103177.72;4955938;28;20035;-72
2022/01/26 08:10:29;;;;;;;88.80;35.88;;;;;;;2.03;90.97;103166.25;4973288;28;20038;-72
2022/01/26 08:12:54;;;;;;;86.75;32.22;;;;;;;2.03;91.45;103166.25;4973392;28;20030;-72
2022/01/26 08:15:20;;;;;;;80.68;31.27;;;;;;;2.03;91.38;103170.66;4973317;28;20039;-72
2022/01/26 08:17:45;;;;;;;79.38;39.00;;;;;;;2.02;91.52;103182.97;4973321;28;20034;-72
2022/01/26 08:20:11;;;;;;;84.18;37.58;;;;;;;2.03;91.61;103187.28;4973181;28;20038;-72
2022/01/26 08:22:37;;;;;;;83.10;36.80;;;;;;;2.03;91.85;103176.75;4973006;28;20030;-72
2022/01/26 08:25:03;;;;;;;83.50;35.60;;;;;;;2.04;92.00;103172.34;4972702;28;20050;-72
2022/01/26 08:27:36;;;;;;;78.45;33.17;;;;;;;2.03;92.38;103165.41;4972893;28;20402;-72
2022/01/26 08:30:08;;;;;;;89.95;35.72;;;;;;;2.06;92.36;103162.59;4973090;28;20074;-72
2022/01/26 08:32:33;;;;;;;;;;;;;;;2.08;91.25;103177.38;4973574;28;20035;-72
2022/01/26 08:34:59;;;;;;;84.18;37.00;;;;;;;2.07;92.23;103165.16;4972914;28;20040;-72
2022/01/26 08:37:25;;;;;;;79.50;38.60;;;;;;;2.10;92.38;103170.25;4973104;28;20035;-72
2022/01/26 08:39:50;;;;;;;90.18;36.75;;;;;;;2.12;92.60;103165.75;4972567;28;20034;-72
2022/01/26 08:42:16;;;;;;;80.93;37.47;;;;;;;2.12;92.54;103172.78;4970443;28;20089;-72
2022/01/26 08:44:41;;;;;;;74.43;35.78;;;;;;;2.12;92.77;103180.66;4954182;28;20054;-72
2022/01/26 08:47:06;;;;;;;90.30;34.58;;;;;;;2.14;92.93;103182.28;4954164;28;20039;-72
2022/01/26 08:49:32;;;;;;;74.78;38.15;;;;;;;2.14;93.07;103187.56;4954162;28;20445;-72
2022/01/26 08:51:58;;;;;;;84.25;38.40;;;;;;;2.15;92.95;103173.47;4954176;28;20499;-71
2022/01/26 08:54:23;;;;;;;85.93;35.72;;;;;;;2.18;92.88;103197.00;4954070;28;20106;-72
2022/01/26 08:56:50;;;;;;;83.15;36.03;;;;;;;2.20;92.89;103183.72;4954052;28;20489;-72
2022/01/26 08:59:20;;;;;;;71.50;31.00;;;;;;;2.22;92.94;103187.13;4954006;28;20062;-72
2022/01/26 09:01:45;;;;;;;70.82;33.47;;;;;;;2.27;92.71;103181.63;4953954;28;20035;-72
2022/01/26 09:04:12;;;;;;;72.32;32.00;;;;;;;2.23;93.15;103166.91;4959171;28;20430;-71
2022/01/26 09:06:51;;;;;;;70.60;31.15;;;;;;;2.28;93.22;103178.03;4972480;28;20034;-71
2022/01/26 09:09:22;;;;;;;67.03;33.97;;;;;;;2.35;92.70;103177.63;4972366;28;20370;-71
2022/01/26 09:11:49;;;;;;;79.13;34.25;;;;;;;2.33;92.59;103168.09;4972438;28;20149;-71
2022/01/26 09:14:21;;;;;;;71.15;32.15;;;;;;;2.38;92.47;103176.59;4972143;28;20030;-72
2022/01/26 09:16:50;;;;;;;72.35;31.67;;;;;;;2.41;92.43;103189.59;4969018;28;20086;-74
2022/01/26 09:19:26;;;;;;;71.88;31.50;;;;;;;2.38;92.99;103180.09;4936313;28;20039;-72
2022/01/26 09:21:57;;;;;;;66.82;28.67;;;;;;;2.42;92.53;103184.25;4953874;28;20095;-71
2022/01/26 09:24:26;;;;;;;75.00;30.38;;;;;;;2.40;92.80;103182.63;4950807;28;20051;-72
2022/01/26 09:26:52;;;;;;;69.25;30.10;;;;;;;2.41;92.91;103181.69;4963918;28;20039;-72
2022/01/26 09:29:17;;;;;;;74.20;34.75;;;;;;;2.45;92.54;103188.50;4953405;28;20060;-72
2022/01/26 09:31:44;;;;;;;73.85;33.92;;;;;;;2.47;93.21;103185.78;4953428;28;20499;-72
2022/01/26 09:34:09;;;;;;;73.60;32.05;;;;;;;2.46;93.44;103178.81;4953673;28;20053;-72
2022/01/26 09:36:34;;;;;;;70.38;29.65;;;;;;;2.50;92.94;103185.63;4953406;28;20479;-72
2022/01/26 09:39:00;;;;;;;81.50;35.03;;;;;;;2.54;92.84;103195.03;4920274;28;20446;-71
2022/01/26 09:41:26;;;;;;;74.28;33.17;;;;;;;2.51;93.27;103171.50;4953394;28;20126;-71
2022/01/26 09:43:52;;;;;;;74.60;32.47;;;;;;;2.52;92.89;103166.16;4936037;28;20054;-71
2022/01/26 09:46:18;;;;;;;79.50;36.13;;;;;;;2.54;93.50;103166.94;4953037;28;20035;-71
2022/01/26 09:48:44;;;;;;;74.78;30.92;;;;;;;2.55;93.42;103163.34;4968289;28;20109;-72
2022/01/26 09:51:13;;;;;;;74.85;33.00;;;;;;;2.57;93.36;103172.00;4971459;28;20026;-71
2022/01/26 09:53:39;;;;;;;85.13;35.35;;;;;;;2.59;93.55;103169.28;4971003;28;20042;-71
2022/01/26 09:56:04;;;;;;;73.15;32.15;;;;;;;2.61;93.44;103168.25;4971416;28;20081;-76
2022/01/26 09:58:30;;;;;;;71.50;32.70;;;;;;;2.61;93.09;103157.72;4971419;28;20069;-72
2022/01/26 10:01:01;;;;;;;70.57;29.20;;;;;;;2.62;92.89;103158.59;4954217;28;20034;-72
2022/01/26 10:03:31;;;;;;;65.57;27.27;;;;;;;2.67;93.29;103158.31;4963917;28;20034;-72
2022/01/26 10:05:57;;;;;;;72.72;30.42;;;;;;;2.71;93.05;103175.66;4971327;28;20285;-72
2022/01/26 10:08:51;;;;;;;71.22;35.30;;;;;;;2.70;93.28;103151.09;4971218;28;20030;-72
2022/01/26 10:18:57;;;;;;;62.05;27.85;;;;;;;2.81;92.63;103156.59;4959397;28;20109;-69
2022/01/26 10:21:23;;;;;;;63.67;29.92;;;;;;;2.86;92.37;103156.31;4946881;28;20062;-68
2022/01/26 10:23:49;;;;;;;63.22;26.05;;;;;;;2.86;92.48;103158.97;4971091;28;20118;-69
2022/01/26 10:26:19;;;;;;;65.43;27.15;;;;;;;2.83;92.30;103152.06;4970910;28;20557;-69
2022/01/26 10:28:51;;;;;;;67.65;29.88;;;;;;;2.82;92.22;103150.34;4958817;28;20058;-69
2022/01/26 10:31:19;;;;;;;64.45;29.30;;;;;;;2.83;92.43;103154.72;4948241;28;20043;-70
2022/01/26 10:34:01;;;;;;;58.85;27.08;;;;;;;2.83;92.36;103167.03;4948414;28;20085;-70
2022/01/26 10:36:38;;;;;;;65.72;29.30;;;;;;;2.82;92.06;103174.06;4948731;28;20080;-71
2022/01/26 10:39:08;;;;;;;64.78;27.40;;;;;;;2.85;92.20;103194.13;4929993;28;20031;-72
2022/01/26 10:41:38;;;;;;;56.03;27.90;;;;;;;2.86;92.28;103206.41;4948059;28;20082;-72
2022/01/26 10:44:05;;;;;;;58.53;25.30;;;;;;;2.85;91.92;103202.88;4947565;28;20027;-73
2022/01/26 10:46:35;;;;;;;57.22;23.38;;;;;;;2.87;91.58;103199.34;4948527;28;20559;-72
2022/01/26 10:51:51;;;;;;;55.97;23.83;;;;;;;2.89;91.54;103206.22;4948648;28;20031;-67
2022/01/26 10:56:52;;;;;;;61.30;25.23;;;;;;;2.90;91.45;103194.72;4948112;28;20054;-67
2022/01/26 10:59:18;;;;;;;58.63;24.65;;;;;;;2.91;91.89;103188.53;4947940;28;20490;-71
2022/01/26 11:01:43;;;;;;;56.53;26.42;;;;;;;2.91;92.07;103190.28;4948623;28;20113;-71
2022/01/26 11:04:09;;;;;;;56.70;22.33;;;;;;;2.93;92.00;103186.63;4948452;28;20185;-70
2022/01/26 11:06:36;;;;;;;46.00;24.00;;;;;;;2.95;92.03;103192.66;4947456;28;20031;-69
2022/01/26 11:09:12;;;;;;;53.65;23.90;;;;;;;2.96;91.78;103191.75;4948028;28;20023;-70
2022/01/26 11:11:40;;;;;;;51.28;25.08;;;;;;;2.96;91.60;103177.69;4947836;28;20046;-71
2022/01/26 11:14:22;;;;;;;59.05;28.27;;;;;;;2.98;91.94;103187.22;4930473;28;20049;-70
2022/01/26 11:17:00;;;;;;;42.80;23.98;;;;;;;2.95;91.81;103173.38;4950545;28;20035;-70
2022/01/26 11:19:26;;;;;;;48.28;23.42;;;;;;;3.02;91.69;103175.56;4951728;28;20131;-70
2022/01/26 11:21:52;;;;;;;47.20;23.88;;;;;;;3.01;92.05;103181.78;4934674;28;20039;-75
2022/01/26 11:24:20;;;;;;;55.80;23.55;;;;;;;3.02;92.12;103177.38;4941958;28;20042;-71
2022/01/26 11:27:03;;;;;;;50.63;24.98;;;;;;;3.05;91.78;103179.81;4951267;28;20066;-71
2022/01/26 11:29:33;;;;;;;48.17;25.42;;;;;;;3.07;91.88;103176.16;4950998;28;20062;-70
2022/01/26 11:32:27;;;;;;;47.03;22.55;;;;;;;3.09;91.91;103165.50;4951781;28;20047;-70
2022/01/26 11:34:55;;;;;;;48.45;23.02;;;;;;;3.09;91.55;103162.84;4951918;28;20034;-70
2022/01/26 11:37:37;;;;;;;48.35;23.42;;;;;;;3.13;91.77;103160.91;4951749;28;20398;-71
2022/01/26 11:45:18;;;;;;;54.15;22.88;;;;;;;3.16;91.83;103144.91;4951408;28;20047;-70
2022/01/26 11:48:08;;;;;;;49.58;23.58;;;;;;;3.21;91.77;103150.75;4960767;28;20110;-73
2022/01/26 11:50:36;;;;;;;49.95;23.90;;;;;;;3.20;92.06;103147.28;4951034;28;20910;-71
2022/01/26 11:53:05;;;;;;;48.10;23.95;;;;;;;3.20;91.74;103147.28;4951269;28;20114;-71
2022/01/26 11:55:34;;;;;;;45.10;24.23;;;;;;;3.22;91.75;103141.88;4951023;28;20039;-71
2022/01/26 11:58:11;;;;;;;54.55;25.00;;;;;;;3.23;91.58;103127.78;4951092;28;20056;-72
2022/01/26 12:03:31;;;;;;;47.15;22.08;;;;;;;3.30;91.73;103129.09;4951966;28;20557;-71
2022/01/26 12:05:58;;;;;;;46.80;24.25;;;;;;;3.34;91.97;103119.22;4951102;28;20043;-72
2022/01/26 12:08:33;;;;;;;52.38;25.40;;;;;;;3.37;92.30;103122.50;4951461;28;20073;-71
2022/01/26 12:10:58;;;;;;;49.95;22.55;;;;;;;3.38;91.50;103118.94;4951297;28;20166;-72
2022/01/26 12:13:26;;;;;;;47.33;22.88;;;;;;;3.39;91.40;103103.97;4951533;28;20541;-71
2022/01/26 12:15:56;;;;;;;52.60;23.92;;;;;;;3.42;91.64;103111.69;4953149;28;20046;-71
2022/01/26 12:32:18;;;;;;;50.00;23.83;;;;;;;3.57;91.26;103125.72;4954896;28;20157;-71
2022/01/26 12:37:20;;;;;;;54.17;26.42;;;;;;;3.53;91.02;103124.22;4954531;28;20039;-72
2022/01/26 12:45:15;;;;;;;51.20;25.40;;;;;;;3.43;91.18;103122.16;4972789;28;20042;-71
2022/01/26 12:47:44;;;;;;;48.30;21.98;;;;;;;3.44;91.52;103128.28;4972778;28;20413;-71
2022/01/26 12:50:09;;;;;;;48.00;23.52;;;;;;;3.37;91.57;103114.59;4972728;28;20030;-72
2022/01/26 12:52:35;;;;;;;50.97;24.50;;;;;;;3.42;91.34;103116.97;4971593;28;20039;-71
2022/01/26 12:55:01;;;;;;;47.67;23.70;;;;;;;3.44;91.00;103117.72;4953954;28;20091;-71
2022/01/26 12:57:27;;;;;;;49.25;25.73;;;;;;;3.52;91.49;103128.66;4954216;28;20039;-71
2022/01/26 13:00:03;;;;;;;51.55;25.38;;;;;;;3.55;91.31;103114.41;4954102;28;20054;-72
2022/01/26 13:02:29;;;;;;;53.60;24.35;;;;;;;3.58;91.43;103107.16;4954072;28;20046;-72
2022/01/26 13:05:03;;;;;;;46.97;20.90;;;;;;;3.66;90.85;103093.47;4936744;28;20035;-71
2022/01/26 13:07:29;;;;;;;56.95;25.98;;;;;;;3.69;90.84;103102.06;4953998;28;20027;-71
2022/01/26 13:09:55;;;;;;;53.63;23.25;;;;;;;3.75;90.76;103103.47;4953991;28;20390;-72
2022/01/26 13:12:31;;;;;;;52.60;25.05;;;;;;;3.79;90.21;103101.47;4953995;28;20031;-71
2022/01/26 13:15:08;;;;;;;52.25;24.42;;;;;;;3.74;90.28;103086.78;4953870;28;20534;-71
2022/01/26 13:17:40;;;;;;;58.53;24.23;;;;;;;3.76;90.37;103094.59;4953658;28;20041;-71
2022/01/26 13:20:24;;;;;;;50.83;23.42;;;;;;;3.75;90.16;103090.28;4937558;28;20055;-71
2022/01/26 13:30:56;;;;;;;50.08;27.00;;;;;;;3.89;90.36;103063.00;4953544;28;20031;-71
2022/01/26 13:36:50;;;;;;;53.58;24.83;;;;;;;3.95;89.26;103074.00;4963028;28;20038;-73
2022/01/26 13:42:08;;;;;;;48.78;26.02;;;;;;;3.91;89.26;103074.31;4969874;28;20045;-72
2022/01/26 13:53:00;;;;;;;41.65;20.10;;;;;;;3.81;89.49;103062.66;4874664;29;20427;-72
2022/01/26 13:58:20;;;;;;;46.45;22.85;;;;;;;3.85;89.51;103065.00;4953176;28;20122;-72
2022/01/26 14:00:57;;;;;;;44.58;24.00;;;;;;;3.91;89.50;103063.75;4953043;28;20023;-72